createdAt,value
2023-04-24T00:02:58.625Z,11.40
2023-04-24T00:06:24.594Z,11.40
2023-04-24T00:09:48.673Z,11.40
2023-04-24T00:13:13.340Z,11.30
2023-04-24T00:16:37.242Z,11.30
2023-04-24T00:20:05.441Z,11.30
2023-04-24T00:23:29.689Z,11.30
2023-04-24T00:26:54.188Z,11.30
2023-04-24T00:30:18.331Z,11.20
2023-04-24T00:33:42.317Z,11.20
2023-04-24T00:37:08.804Z,11.20
2023-04-24T00:40:32.505Z,11.20
2023-04-24T00:43:58.488Z,11.10
2023-04-24T00:47:24.428Z,11.10
2023-04-24T00:50:50.341Z,11.10
2023-04-24T00:54:15.660Z,11.10
2023-04-24T00:57:39.384Z,11.20
2023-04-24T01:01:09.547Z,11.20
2023-04-24T01:04:33.408Z,11.20
2023-04-24T01:07:59.753Z,11.20
2023-04-24T01:11:24.780Z,11.20
2023-04-24T01:14:49.357Z,11.20
2023-04-24T01:18:13.433Z,11.20
2023-04-24T01:21:39.167Z,11.20
2023-04-24T01:25:06.019Z,11.20
2023-04-24T01:28:29.817Z,11.20
2023-04-24T01:31:54.459Z,11.20
2023-04-24T01:35:18.408Z,11.20
2023-04-24T01:38:42.408Z,11.20
2023-04-24T01:42:11.568Z,11.10
2023-04-24T01:45:35.557Z,11.10
2023-04-24T01:49:02.561Z,11.00
2023-04-24T01:52:26.809Z,10.90
2023-04-24T01:55:51.402Z,10.70
2023-04-24T01:59:19.010Z,10.80
2023-04-24T02:02:46.530Z,10.60
2023-04-24T02:06:13.369Z,10.60
2023-04-24T02:09:37.477Z,10.60
2023-04-24T02:13:01.681Z,10.50
2023-04-24T02:16:26.922Z,10.60
2023-04-24T02:19:51.380Z,10.50
2023-04-24T02:23:15.618Z,10.50
2023-04-24T02:26:39.717Z,10.50
2023-04-24T02:30:04.140Z,10.40
2023-04-24T02:33:30.796Z,10.30
2023-04-24T02:36:55.849Z,10.40
2023-04-24T02:40:20.520Z,10.30
2023-04-24T02:43:45.423Z,10.30
2023-04-24T02:47:09.739Z,10.30
2023-04-24T02:50:35.854Z,10.30
2023-04-24T02:53:59.605Z,10.30
2023-04-24T02:57:23.528Z,10.20
2023-04-24T03:00:47.697Z,10.20
2023-04-24T03:04:12.639Z,10.20
2023-04-24T03:07:37.933Z,10.20
2023-04-24T03:11:02.477Z,10.30
2023-04-24T03:14:26.535Z,10.40
2023-04-24T03:17:50.640Z,10.40
2023-04-24T03:21:14.537Z,10.50
2023-04-24T03:24:41.146Z,10.50
2023-04-24T03:28:05.714Z,10.60
2023-04-24T03:31:39.491Z,10.60
2023-04-24T03:35:04.324Z,10.60
2023-04-24T03:38:28.575Z,10.70
2023-04-24T03:41:58.827Z,10.70
2023-04-24T03:45:32.950Z,10.70
2023-04-24T03:48:59.764Z,10.70
2023-04-24T03:52:28.419Z,10.70
2023-04-24T03:55:53.623Z,10.70
2023-04-24T03:59:19.097Z,10.70
2023-04-24T04:02:48.292Z,10.60
2023-04-24T04:06:13.989Z,10.60
2023-04-24T04:09:38.625Z,10.60
2023-04-24T04:13:02.641Z,10.60
2023-04-24T04:16:27.940Z,10.60
2023-04-24T04:19:58.670Z,10.60
2023-04-24T04:23:22.504Z,10.60
2023-04-24T04:27:11.821Z,10.60
2023-04-24T04:30:50.826Z,10.60
2023-04-24T04:34:17.101Z,10.60
2023-04-24T04:37:41.913Z,10.70
2023-04-24T04:41:14.526Z,10.70
2023-04-24T04:44:39.592Z,10.60
2023-04-24T04:48:04.856Z,10.80
2023-04-24T04:51:33.311Z,10.90
2023-04-24T04:55:01.217Z,10.90
2023-04-24T04:58:42.595Z,10.90
2023-04-24T05:02:10.107Z,10.60
2023-04-24T05:05:41.897Z,10.50
2023-04-24T05:09:18.921Z,10.30
2023-04-24T05:12:48.918Z,10.30
2023-04-24T05:16:15.905Z,10.20
2023-04-24T05:19:40.678Z,10.20
2023-04-24T05:23:05.546Z,10.20
2023-04-24T05:26:32.089Z,10.20
2023-04-24T05:30:00.934Z,10.20
2023-04-24T05:33:27.010Z,10.30
2023-04-24T05:36:52.492Z,10.30
2023-04-24T05:40:17.335Z,10.30
2023-04-24T05:43:49.981Z,10.40
2023-04-24T05:47:13.694Z,10.40
2023-04-24T05:50:37.677Z,10.40
2023-04-24T05:54:04.050Z,10.40
2023-04-24T05:57:28.203Z,10.40
2023-04-24T06:00:59.927Z,10.50
2023-04-24T06:04:25.757Z,10.50
2023-04-24T06:07:50.923Z,10.50
2023-04-24T06:11:16.166Z,10.60
2023-04-24T06:14:44.327Z,10.50
2023-04-24T06:18:19.164Z,10.40
2023-04-24T06:21:45.104Z,10.30
2023-04-24T06:25:09.634Z,10.30
2023-04-24T06:28:33.402Z,10.30
2023-04-24T06:31:57.150Z,10.30
2023-04-24T06:35:22.208Z,10.50
2023-04-24T06:38:46.152Z,10.40
2023-04-24T06:42:10.505Z,10.50
2023-04-24T06:45:34.305Z,10.40
2023-04-24T06:48:57.902Z,10.40
2023-04-24T06:52:23.173Z,10.40
2023-04-24T06:55:47.177Z,10.30
2023-04-24T06:59:10.765Z,10.40
2023-04-24T07:02:34.775Z,10.30
2023-04-24T07:05:58.853Z,10.40
2023-04-24T07:09:24.642Z,10.40
2023-04-24T07:12:48.460Z,10.40
2023-04-24T07:16:12.224Z,10.30
2023-04-24T07:19:36.534Z,10.50
2023-04-24T07:23:00.126Z,10.40
2023-04-24T07:26:25.241Z,10.40
2023-04-24T07:29:49.002Z,10.60
2023-04-24T07:33:14.322Z,10.60
2023-04-24T07:36:39.271Z,10.60
2023-04-24T07:40:03.198Z,10.80
2023-04-24T07:43:29.287Z,10.70
2023-04-24T07:46:53.125Z,10.80
2023-04-24T07:50:17.381Z,10.90
2023-04-24T07:53:41.365Z,10.80
2023-04-24T07:57:05.320Z,10.80
2023-04-24T08:00:30.481Z,10.90
2023-04-24T08:03:54.565Z,10.90
2023-04-24T08:07:18.391Z,10.90
2023-04-24T08:10:41.964Z,10.90
2023-04-24T08:14:05.851Z,10.80
2023-04-24T08:17:32.000Z,10.90
2023-04-24T08:20:55.804Z,10.70
2023-04-24T08:24:19.465Z,10.80
2023-04-24T08:27:43.642Z,10.70
2023-04-24T08:31:07.405Z,10.80
2023-04-24T08:34:32.423Z,11.10
2023-04-24T08:37:56.088Z,12.80
2023-04-24T08:41:20.848Z,13.80
2023-04-24T08:44:45.516Z,13.80
2023-04-24T08:48:19.724Z,13.90
2023-04-24T08:51:49.010Z,13.50
2023-04-24T08:55:12.900Z,12.70
2023-04-24T08:58:38.114Z,12.40
2023-04-24T09:02:02.058Z,12.10
2023-04-24T09:05:28.281Z,11.80
2023-04-24T09:08:56.895Z,11.60
2023-04-24T09:12:21.278Z,11.40
2023-04-24T09:15:45.053Z,11.40
2023-04-24T09:19:08.830Z,11.40
2023-04-24T09:22:32.742Z,11.30
2023-04-24T09:25:59.226Z,11.30
2023-04-24T09:29:22.979Z,11.20
2023-04-24T09:32:47.080Z,11.30
2023-04-24T09:36:10.987Z,11.00
2023-04-24T09:39:34.709Z,11.00
2023-04-24T09:43:02.065Z,11.20
2023-04-24T09:46:33.389Z,11.10
2023-04-24T09:50:00.425Z,11.10
2023-04-24T09:53:26.943Z,11.20
2023-04-24T09:56:52.375Z,11.30
2023-04-24T10:00:21.648Z,11.20
2023-04-24T10:03:45.610Z,11.10
2023-04-24T10:07:11.020Z,11.10
2023-04-24T10:10:35.807Z,11.00
2023-04-24T10:14:00.480Z,10.80
2023-04-24T10:17:27.170Z,10.80
2023-04-24T10:20:51.128Z,10.80
2023-04-24T10:24:15.378Z,10.70
2023-04-24T10:27:41.054Z,10.80
2023-04-24T10:31:05.463Z,10.90
2023-04-24T10:34:31.288Z,10.80
2023-04-24T10:38:00.250Z,10.90
2023-04-24T10:41:27.432Z,10.90
2023-04-24T10:44:51.461Z,11.00
2023-04-24T10:48:17.444Z,10.90
2023-04-24T10:51:50.154Z,10.90
2023-04-24T10:55:15.410Z,10.60
2023-04-24T10:58:41.670Z,10.60
2023-04-24T11:02:05.349Z,10.50
2023-04-24T11:05:52.871Z,10.60
2023-04-24T11:09:19.383Z,10.50
2023-04-24T11:12:43.104Z,10.30
2023-04-24T11:16:15.904Z,10.20
2023-04-24T11:19:41.530Z,10.20
2023-04-24T11:23:07.895Z,10.00
2023-04-24T11:26:40.357Z,9.80
2023-04-24T11:30:05.924Z,9.60
2023-04-24T11:33:33.796Z,9.70
2023-04-24T11:36:57.566Z,10.10
2023-04-24T11:40:24.500Z,10.20
2023-04-24T11:43:50.845Z,10.30
2023-04-24T11:47:14.626Z,10.10
2023-04-24T11:50:39.084Z,10.00
2023-04-24T11:54:04.781Z,9.80
2023-04-24T11:57:34.385Z,9.70
2023-04-24T12:01:00.400Z,9.80
2023-04-24T12:04:27.866Z,10.10
2023-04-24T12:07:52.286Z,10.20
2023-04-24T12:11:23.612Z,10.10
2023-04-24T12:14:54.041Z,10.10
2023-04-24T12:18:21.671Z,10.20
2023-04-24T12:22:04.787Z,9.80
2023-04-24T12:25:33.643Z,9.40
2023-04-24T12:29:08.100Z,9.40
2023-04-24T12:32:32.337Z,9.50
2023-04-24T12:36:02.986Z,9.50
2023-04-24T12:39:27.722Z,9.50
2023-04-24T12:42:58.416Z,9.50
2023-04-24T12:46:26.249Z,9.60
2023-04-24T12:49:54.134Z,9.60
2023-04-24T12:53:26.220Z,9.70
2023-04-24T12:56:54.896Z,9.70
2023-04-24T13:00:21.375Z,9.70
2023-04-24T13:03:47.505Z,9.60
2023-04-24T13:07:12.139Z,10.10
2023-04-24T13:10:38.812Z,9.50
2023-04-24T13:14:02.533Z,9.50
2023-04-24T13:17:26.366Z,9.60
2023-04-24T13:20:50.236Z,9.60
2023-04-24T13:24:14.318Z,9.70
2023-04-24T13:27:41.693Z,9.80
2023-04-24T13:31:07.399Z,9.70
2023-04-24T13:34:31.426Z,9.60
2023-04-24T13:37:55.112Z,9.40
2023-04-24T13:41:18.924Z,9.30
2023-04-24T13:44:43.941Z,9.30
2023-04-24T13:48:07.742Z,9.20
2023-04-24T13:51:31.800Z,9.30
2023-04-24T13:54:56.516Z,9.50
2023-04-24T13:58:20.332Z,9.40
2023-04-24T14:01:47.573Z,9.40
2023-04-24T14:05:12.956Z,9.40
2023-04-24T14:08:36.655Z,9.50
2023-04-24T14:12:02.028Z,9.60
2023-04-24T14:15:25.742Z,9.50
2023-04-24T14:18:51.094Z,9.60
2023-04-24T14:22:14.911Z,10.10
2023-04-24T14:25:38.680Z,9.80
2023-04-24T14:32:29.118Z,10.00
2023-04-24T14:35:54.332Z,10.40
2023-04-24T14:39:18.005Z,10.20
2023-04-24T14:42:42.059Z,10.20
2023-04-24T14:46:07.192Z,10.20
2023-04-24T14:49:30.884Z,10.20
2023-04-24T14:52:58.245Z,10.20
2023-04-24T14:56:22.250Z,10.30
2023-04-24T14:59:45.957Z,10.20
2023-04-24T15:03:09.799Z,10.00
2023-04-24T15:06:33.855Z,10.00
2023-04-24T15:09:59.132Z,9.60
2023-04-24T15:13:22.896Z,9.50
2023-04-24T15:16:47.024Z,9.60
2023-04-24T15:20:11.710Z,9.70
2023-04-24T15:23:35.806Z,9.90
2023-04-24T15:27:02.461Z,10.00
2023-04-24T15:30:26.213Z,9.90
2023-04-24T15:33:50.582Z,10.00
2023-04-24T15:37:14.476Z,10.00
2023-04-24T15:40:39.054Z,9.90
2023-04-24T15:44:04.046Z,10.10
2023-04-24T15:47:27.965Z,9.70
2023-04-24T15:50:51.707Z,9.80
2023-04-24T15:54:15.552Z,9.90
2023-04-24T15:57:39.314Z,9.90
2023-04-24T16:01:05.598Z,10.00
2023-04-24T16:04:30.381Z,9.80
2023-04-24T16:07:54.179Z,9.80
2023-04-24T16:11:17.972Z,9.80
2023-04-24T16:14:41.572Z,11.10
2023-04-24T16:18:06.919Z,9.60
2023-04-24T16:21:31.664Z,9.40
2023-04-24T16:24:55.341Z,9.60
2023-04-24T16:28:18.929Z,9.20
2023-04-24T16:31:42.480Z,9.30
2023-04-24T16:35:07.907Z,9.20
2023-04-24T16:38:31.592Z,9.20
2023-04-24T16:41:56.808Z,9.10
2023-04-24T16:45:22.017Z,9.30
2023-04-24T16:48:45.705Z,9.50
2023-04-24T16:52:12.417Z,10.40
2023-04-24T16:55:36.062Z,9.40
2023-04-24T16:58:59.818Z,10.30
2023-04-24T17:02:23.516Z,8.80
2023-04-24T17:05:47.302Z,8.60
2023-04-24T17:09:12.960Z,8.50
2023-04-24T17:12:36.765Z,8.60
2023-04-24T17:16:00.702Z,8.50
2023-04-24T17:19:25.838Z,8.70
2023-04-24T17:22:49.456Z,8.70
2023-04-24T17:26:14.477Z,8.80
2023-04-24T17:29:38.056Z,8.80
2023-04-24T17:33:01.765Z,8.80
2023-04-24T17:36:25.631Z,8.70
2023-04-24T17:39:49.304Z,8.70
2023-04-24T17:43:18.055Z,8.70
2023-04-24T17:46:42.134Z,8.80
2023-04-24T17:50:06.973Z,8.80
2023-04-24T17:53:30.611Z,8.80
2023-04-24T17:56:54.837Z,8.80
2023-04-24T18:00:20.407Z,8.70
2023-04-24T18:03:44.792Z,8.70
2023-04-24T18:07:08.648Z,8.70
2023-04-24T18:10:35.264Z,8.80
2023-04-24T18:13:58.965Z,8.80
2023-04-24T18:17:24.282Z,8.80
2023-04-24T18:20:47.994Z,8.80
2023-04-24T18:24:11.700Z,8.80
2023-04-24T18:27:35.457Z,8.80
2023-04-24T18:30:59.467Z,8.70
2023-04-24T18:34:25.973Z,8.70
2023-04-24T18:37:50.089Z,8.60
2023-04-24T18:41:14.243Z,8.50
2023-04-24T18:44:40.885Z,8.50
2023-04-24T18:48:04.897Z,8.50
2023-04-24T18:51:29.943Z,8.60
2023-04-24T18:54:54.308Z,8.60
2023-04-24T18:58:18.166Z,8.70
2023-04-24T19:01:41.768Z,8.80
2023-04-24T19:05:05.731Z,8.80
2023-04-24T19:08:30.899Z,8.80
2023-04-24T19:11:54.797Z,8.80
2023-04-24T19:15:18.692Z,8.80
2023-04-24T19:18:44.302Z,8.70
2023-04-24T19:22:08.573Z,8.70
2023-04-24T19:25:33.774Z,8.70
2023-04-24T19:28:58.960Z,8.70
2023-04-24T19:32:22.921Z,8.60
2023-04-24T19:35:46.889Z,8.50
2023-04-24T19:39:15.467Z,8.40
2023-04-24T19:42:46.489Z,8.40
2023-04-24T19:46:16.081Z,8.30
2023-04-24T19:49:42.917Z,8.30
2023-04-24T19:53:15.426Z,8.30
2023-04-24T19:56:39.058Z,8.20
2023-04-24T20:00:04.745Z,8.30
2023-04-24T20:03:33.628Z,8.40
2023-04-24T20:06:58.367Z,8.40
2023-04-24T20:10:22.066Z,8.40
2023-04-24T20:13:57.429Z,8.40
2023-04-24T20:17:22.705Z,8.40
2023-04-24T20:20:46.832Z,8.30
2023-04-24T20:24:10.686Z,8.20
2023-04-24T20:27:34.330Z,8.10
2023-04-24T20:30:58.935Z,8.10
2023-04-24T20:34:24.385Z,8.10
2023-04-24T20:37:48.463Z,8.10
2023-04-24T20:41:12.158Z,8.10
2023-04-24T20:44:36.256Z,8.10
2023-04-24T20:47:59.900Z,8.10
2023-04-24T20:51:24.967Z,8.00
2023-04-24T20:54:49.064Z,7.90
2023-04-24T20:58:12.810Z,7.80
2023-04-24T21:01:36.460Z,7.80
2023-04-24T21:05:00.166Z,7.80
2023-04-24T21:08:25.402Z,7.80
2023-04-24T21:11:49.030Z,7.70
2023-04-24T21:15:13.270Z,7.60
2023-04-24T21:18:40.905Z,7.60
2023-04-24T21:22:04.552Z,7.50
2023-04-24T21:25:30.068Z,7.50
2023-04-24T21:28:56.952Z,7.40
2023-04-24T21:32:21.383Z,7.40
2023-04-24T21:35:45.108Z,7.30
2023-04-24T21:39:08.644Z,7.30
2023-04-24T21:42:33.840Z,7.20
2023-04-24T21:45:57.740Z,7.20
2023-04-24T21:49:21.362Z,7.20
2023-04-24T21:52:45.064Z,7.10
2023-04-24T21:56:09.059Z,7.10
2023-04-24T21:59:35.400Z,7.10
2023-04-24T22:02:59.365Z,7.00
2023-04-24T22:06:23.311Z,7.00
2023-04-24T22:09:46.935Z,7.00
2023-04-24T22:13:10.491Z,7.00
2023-04-24T22:16:35.604Z,7.00
2023-04-24T22:19:59.211Z,7.00
2023-04-24T22:23:23.042Z,6.90
2023-04-24T22:26:46.832Z,6.90
2023-04-24T22:30:11.391Z,6.90
2023-04-24T22:33:36.376Z,6.90
2023-04-24T22:36:59.918Z,6.90
2023-04-24T22:40:23.773Z,6.80
2023-04-24T22:43:47.770Z,6.80
2023-04-24T22:47:11.621Z,6.80
2023-04-24T22:50:37.013Z,6.80
2023-04-24T22:54:02.202Z,6.80
2023-04-24T22:57:26.035Z,6.80
2023-04-24T23:00:49.789Z,6.90
2023-04-24T23:04:13.589Z,6.90
2023-04-24T23:07:39.296Z,6.90
2023-04-24T23:11:03.399Z,7.00
2023-04-24T23:14:27.882Z,7.00
2023-04-24T23:17:51.574Z,7.00
2023-04-24T23:21:15.492Z,7.00
2023-04-24T23:24:40.983Z,7.10
2023-04-24T23:28:04.703Z,7.10
2023-04-24T23:31:28.337Z,7.10
2023-04-24T23:34:52.118Z,7.10
2023-04-24T23:38:16.290Z,7.10
2023-04-24T23:41:43.121Z,7.10
2023-04-24T23:45:07.734Z,7.00
2023-04-24T23:48:31.667Z,7.00
2023-04-24T23:51:56.157Z,7.10
2023-04-24T23:55:20.049Z,7.00
2023-04-24T23:58:46.588Z,7.00
